Earlington, Kentucky
Current Conditions -  °F | °C
As of 12:35 PM on Friday 31 Oct 2014 (Local Time) from K2I0 Reporting Station
Drizzle Drizzle  
Wind Chill: 37°   Ceiling: 3100
Heat Index: 45°   Visibility: 7mi
Dew Point: 38°   Wind: 20mph
Humidity: 76%   Direction: 330°NNW
Pressure: 30.09"   Gusts: 28mph
Location:  37.27°N, 87.51°W
Report Text: K2I0 311735Z AUTO 33017G24KT 7SM -DZ SCT024 OVC031 07/03 A3009 RMK AO2 T00720033
Loading
Personal Weather Stations






























Interactive Weather Map
Tropical Storm Tracking
New forecast layout! Learn more

10-Day Weather Forecast

Advertisements
Track Severe Weather on mobile